Eolia, MO

11:59 PM CDT on July 22, 2014 (GMT -0500)
N0YWD (KMOLOUIS2) Elev 525 ft | 39.44 °N, 91.06 °W | Change Station
Active Advisory: Flood Warning

Current weather conditions updated 2 minutes ago

Partly Cloudy
Partly Cloudy
80.3 °F
Feels Like 86 °F
N
0.0
Wind Variable Wind from NW
Gusts 0.0 mph

Tomorrow is forecast to be Much Cooler than today.

Today
High -- | Low -- °F
--% Chance of Precip.
Yesterday
High -- | Low -- °F
Precip. -- in
5:55 AM 8:24 PM
Waning Crescent, 13% visible
Pressure 30.02 in
Visibility 4.0 miles
Clouds Overcast 4100 ft
Heat Index 86 °F
Dew Point 76 °F
Humidity 87%
Rainfall 0.00 in
Snow Depth Not available.
UV 0 out of 12
Pollen 6.00 out of 12
Air Quality Not available.
Flu Activity Not available.
METAR KPPQ 230435Z AUTO 00000KT 4SM VCTS BR OVC041 26/24 A3002 RMK AO2 LTG DSNT S T02600242

More Conditions Fewer Conditions

Pressure 30.02 in
Visibility 4.0 miles
Clouds Overcast 4100 ft
Heat Index 86 °F
Dew Point 76 °F
Humidity 87%
Rainfall 0.00 in
Snow Depth Not available.
UV 0 out of 12
Pollen 6.00 out of 12
Air Quality Not available.
Flu Activity Not available.
METAR KPPQ 230435Z AUTO 00000KT 4SM VCTS BR OVC041 26/24 A3002 RMK AO2 LTG DSNT S T02600242

More Conditions Fewer Conditions

10-Day Weather Forecast

Almanac

Astronomy

Jul. 22, 2014 Rise Set
Actual Time 5:55 AM CDT 8:24 PM CDT
Civil Twilight 5:24 AM CDT 8:55 PM CDT
Nautical Twilight 4:46 AM CDT 9:33 PM CDT
Astronomical Twilight 4:03 AM CDT 10:16 PM CDT
Moon 2:28 AM CDT (7/22) 5:03 PM CDT (7/22)
Length of Visible Light 15h 30m
Length of Day
14h 29m
Tomorrow will be 1m 37s shorter.
Waning Crescent, 13% of the Moon is Illuminated
Jul 23
Waning Crescent
Jul 26
New
Aug 3
First Quarter
Aug 10
Full
Aug 17
Last Quarter

Yesterday's Extremes

State Highs State Lows

Community

WunderPhotos

Upload Photos

1,736,508 photos uploaded!

Nearby

Snow Depth

Station Depth Elevation
No new snow has been reported.

Earthquake Activity

City Distance Mag. Time & Date
No recent earthquake activity has been reported nearby.
Minimum magnitude displayed is 2.5.

Coastal Water Temperatures

Place Temperature
No Stations Reporting

Nearby Weather Stations

Station Location Temp. Heat Index Dew Point Humidity Wind Precip. Elev Updated Type
N0YWD, Louisiana, MO 80.3 °F 86 °F 76 °F 87% NW  at  0.0 mph 0.00 in / hr 525 ft 11:57 PM CDT Rapid Fire
Katie Hollow, Kampsville, IL 76.8 °F 77 °F 75 °F 95% West  at  0.0 mph 0.00 in / hr 545 ft 11:59 PM CDT Rapid Fire
Cuivre Valley, Troy, MO 79.7 °F 84 °F 76 °F 87% South  at  0.0 mph 0.00 in / hr 610 ft 11:59 PM CDT Rapid Fire
Blue Ridge, Hardin, IL 80.4 °F 86 °F 75 °F 84% SSE  at  1.0 mph 0.00 in / hr 748 ft 11:52 PM CDT Normal
Batchtown, Batchtown, IL 77.9 °F 80 °F 76 °F 92% ESE  at  0.0 mph 0.00 in / hr 590 ft 11:49 PM CDT Normal

Show More Stations Show Fewer Stations